Time;durP1;ratioP1;P1;durP2;ratioP2;P2;SDS_P1;SDS_P2;PMS_P1;PMS_P2;Temp;Humidity;BMP_temperature;BMP_pressure;BME280_temperature;BME280_humidity;BME280_pressure;Samples;Min_cycle;Max_cycle;Signal;HPM_P1;HPM_P2
2021/04/03 00:00:18;;;;;;;28.67;6.20;;;5.50;90.90;;;;;;5018932;28;20118;-73
2021/04/03 00:02:44;;;;;;;24.50;7.32;;;5.40;91.10;;;;;;5050018;28;20064;-74
2021/04/03 00:05:10;;;;;;;22.42;7.35;;;5.40;90.80;;;;;;5031669;28;20110;-74
2021/04/03 00:07:36;;;;;;;21.13;7.53;;;5.30;91.10;;;;;;5004393;28;20205;-74
2021/04/03 00:10:08;;;;;;;21.05;8.88;;;5.30;91.40;;;;;;5024374;28;20495;-75
2021/04/03 00:12:33;;;;;;;22.23;6.70;;;5.30;91.10;;;;;;5003195;28;20025;-74
2021/04/03 00:14:59;;;;;;;17.98;6.05;;;5.30;91.60;;;;;;5001649;28;20512;-74
2021/04/03 00:17:24;;;;;;;24.38;8.18;;;5.20;91.70;;;;;;5020210;28;20033;-74
2021/04/03 00:19:54;;;;;;;23.45;6.82;;;5.30;91.40;;;;;;5055901;28;20029;-74
2021/04/03 00:22:20;;;;;;;29.20;8.70;;;5.20;91.60;;;;;;5036050;28;20038;-74
2021/04/03 00:24:46;;;;;;;19.75;7.45;;;5.20;91.90;;;;;;5010287;28;20446;-74
2021/04/03 00:27:11;;;;;;;24.55;6.80;;;5.10;92.50;;;;;;5050640;28;20036;-74
2021/04/03 00:29:37;;;;;;;31.27;8.70;;;5.10;92.60;;;;;;5035577;28;20028;-75
2021/04/03 00:32:03;;;;;;;29.35;7.30;;;4.90;92.90;;;;;;5036447;28;20032;-74
2021/04/03 00:34:28;;;;;;;26.27;7.38;;;4.90;92.70;;;;;;5033638;28;20033;-74
2021/04/03 00:36:54;;;;;;;25.88;6.32;;;4.90;92.80;;;;;;5053058;28;20043;-75
2021/04/03 00:39:19;;;;;;;26.60;6.80;;;4.80;93.00;;;;;;5001422;28;20461;-74
2021/04/03 00:41:45;;;;;;;23.80;6.43;;;4.90;93.10;;;;;;5034941;28;20025;-74
2021/04/03 00:44:10;;;;;;;23.42;7.10;;;4.80;93.10;;;;;;5033555;28;20521;-74
2021/04/03 00:46:36;;;;;;;31.65;7.93;;;4.80;93.10;;;;;;5028652;28;20505;-74
2021/04/03 00:49:02;;;;;;;19.70;7.00;;;4.80;93.30;;;;;;5018663;28;20111;-74
2021/04/03 00:51:28;;;;;;;24.95;6.40;;;4.70;93.50;;;;;;5021030;28;20103;-74
2021/04/03 00:53:53;;;;;;;17.65;6.25;;;4.80;93.20;;;;;;5003041;28;20108;-74
2021/04/03 00:56:19;;;;;;;22.63;6.38;;;4.80;92.60;;;;;;5033086;28;20032;-74
2021/04/03 00:58:44;;;;;;;25.45;8.23;;;4.90;92.50;;;;;;5048750;28;20925;-74
2021/04/03 01:01:10;;;;;;;18.02;5.70;;;4.80;92.90;;;;;;5046900;28;20039;-74
2021/04/03 01:03:35;;;;;;;18.58;4.88;;;4.80;92.90;;;;;;5045310;28;20405;-74
2021/04/03 01:06:01;;;;;;;20.58;4.70;;;4.80;92.80;;;;;;5013704;28;20053;-73
2021/04/03 01:08:26;;;;;;;18.90;4.40;;;4.80;92.60;;;;;;5029053;28;20021;-74
2021/04/03 01:10:53;;;;;;;22.05;4.40;;;4.80;92.60;;;;;;5021132;28;20029;-74
2021/04/03 01:13:35;;;;;;;23.77;4.85;;;4.80;92.90;;;;;;5033815;28;20029;-74
2021/04/03 01:16:04;;;;;;;18.55;3.63;;;4.80;92.80;;;;;;5031274;28;20032;-74
2021/04/03 01:18:52;;;;;;;16.65;4.50;;;4.80;92.70;;;;;;5044146;28;20029;-74
2021/04/03 01:21:18;;;;;;;16.02;4.03;;;4.80;92.60;;;;;;5048946;28;20048;-74
2021/04/03 01:24:08;;;;;;;19.13;3.92;;;4.90;92.60;;;;;;5051204;28;20478;-74
2021/04/03 01:27:12;;;;;;;26.75;4.47;;;4.80;92.50;;;;;;5034784;28;20032;-74
2021/04/03 01:29:53;;;;;;;20.77;3.45;;;4.80;92.80;;;;;;5023379;28;20060;-73
2021/04/03 01:32:25;;;;;;;22.25;3.90;;;4.80;92.60;;;;;;5048910;28;20029;-73
2021/04/03 01:34:51;;;;;;;22.45;4.00;;;4.70;92.60;;;;;;5063548;28;20365;-73
2021/04/03 01:37:19;;;;;;;18.88;3.55;;;4.70;92.90;;;;;;5004160;28;20033;-73
2021/04/03 01:39:45;;;;;;;12.90;3.00;;;4.70;92.90;;;;;;5019458;28;20025;-74
2021/04/03 01:42:18;;;;;;;18.38;3.78;;;4.70;92.90;;;;;;5000049;28;20044;-74
2021/04/03 01:44:51;;;;;;;15.45;3.65;;;4.80;92.80;;;;;;5004253;28;20029;-74
2021/04/03 01:47:22;;;;;;;23.13;4.55;;;4.80;92.60;;;;;;5002942;28;20044;-74
2021/04/03 01:49:51;;;;;;;19.70;3.83;;;4.70;92.70;;;;;;5016782;28;20515;-74
2021/04/03 01:52:27;;;;;;;15.40;3.45;;;4.60;92.90;;;;;;5030533;28;20481;-74
2021/04/03 01:54:55;;;;;;;18.00;2.97;;;4.70;92.80;;;;;;5034586;28;20033;-74
2021/04/03 01:57:22;;;;;;;11.73;2.72;;;4.70;92.80;;;;;;5001214;28;20108;-74
2021/04/03 01:59:47;;;;;;;17.25;2.45;;;4.80;92.40;;;;;;5016004;28;20033;-74
2021/04/03 02:02:14;;;;;;;19.70;3.83;;;4.70;92.60;;;;;;5014195;28;20378;-74
2021/04/03 02:04:43;;;;;;;19.98;3.90;;;4.60;92.70;;;;;;5013180;28;20470;-74
2021/04/03 02:07:12;;;;;;;15.65;2.70;;;4.50;92.90;;;;;;5018688;28;20029;-74
2021/04/03 02:09:38;;;;;;;15.38;2.13;;;4.60;92.80;;;;;;5032689;28;20434;-74
2021/04/03 02:12:04;;;;;;;17.98;3.10;;;4.60;92.70;;;;;;5032221;28;20109;-74
2021/04/03 02:14:29;;;;;;;14.30;2.20;;;4.60;92.60;;;;;;5010260;28;20029;-75
2021/04/03 02:16:55;;;;;;;14.07;2.65;;;4.70;92.40;;;;;;5029820;28;20102;-74
2021/04/03 02:19:20;;;;;;;20.48;2.70;;;4.60;92.40;;;;;;5038723;28;20029;-74
2021/04/03 02:21:46;;;;;;;20.75;2.63;;;4.60;92.60;;;;;;5013024;28;20040;-73
2021/04/03 02:24:12;;;;;;;19.17;2.22;;;4.60;92.60;;;;;;5021322;28;20497;-75
2021/04/03 02:26:37;;;;;;;23.35;2.90;;;4.60;92.60;;;;;;5018882;28;20063;-75
2021/04/03 02:29:06;;;;;;;15.13;2.78;;;4.60;92.50;;;;;;5052250;28;20043;-76
2021/04/03 02:31:32;;;;;;;18.35;2.60;;;4.60;92.60;;;;;;5030712;28;20056;-75
2021/04/03 02:33:58;;;;;;;13.93;2.80;;;4.60;92.50;;;;;;5039225;28;20035;-74
2021/04/03 02:36:24;;;;;;;14.35;2.28;;;4.50;92.60;;;;;;5052987;28;20025;-74
2021/04/03 02:38:50;;;;;;;16.73;2.45;;;4.50;92.60;;;;;;5055036;28;20120;-74
2021/04/03 02:41:24;;;;;;;12.85;2.15;;;4.60;92.50;;;;;;5003845;28;20029;-73
2021/04/03 02:43:55;;;;;;;17.35;3.17;;;4.60;92.60;;;;;;5036150;28;20139;-74
2021/04/03 02:46:24;;;;;;;12.55;1.73;;;4.60;92.50;;;;;;5034517;28;20477;-74
2021/04/03 02:48:50;;;;;;;14.68;2.22;;;4.60;92.50;;;;;;5048839;28;21119;-75
2021/04/03 02:51:17;;;;;;;12.48;2.30;;;4.60;92.50;;;;;;5004063;28;20028;-73
2021/04/03 02:53:42;;;;;;;19.77;2.40;;;4.60;92.40;;;;;;5017249;28;20034;-73
2021/04/03 02:56:08;;;;;;;14.07;2.60;;;4.60;92.10;;;;;;5028429;28;20033;-74
2021/04/03 02:58:35;;;;;;;15.02;2.33;;;4.60;92.30;;;;;;5021051;28;20032;-74
2021/04/03 03:01:01;;;;;;;17.52;2.88;;;4.60;92.30;;;;;;5023196;28;20047;-74
2021/04/03 03:03:31;;;;;;;14.80;2.25;;;4.60;92.40;;;;;;5023365;28;20421;-74
2021/04/03 03:05:57;;;;;;;26.90;3.80;;;4.70;91.90;;;;;;5042072;28;20079;-74
2021/04/03 03:08:23;;;;;;;17.77;2.90;;;4.70;92.00;;;;;;5022304;28;20035;-73
2021/04/03 03:10:49;;;;;;;15.98;3.72;;;4.60;92.20;;;;;;5024208;28;20029;-74
2021/04/03 03:13:16;;;;;;;25.50;2.92;;;4.60;92.50;;;;;;5038455;28;20535;-74
2021/04/03 03:15:42;;;;;;;16.50;2.03;;;4.50;92.40;;;;;;5042266;28;20018;-74
2021/04/03 03:18:07;;;;;;;25.90;2.80;;;4.50;92.40;;;;;;5036880;28;20055;-74
2021/04/03 03:20:33;;;;;;;14.95;2.53;;;4.50;92.50;;;;;;5018357;28;20024;-74
2021/04/03 03:22:58;;;;;;;18.30;2.95;;;4.60;92.50;;;;;;5036252;28;20503;-75
2021/04/03 03:25:24;;;;;;;17.98;3.20;;;4.60;92.40;;;;;;5032349;28;20039;-74
2021/04/03 03:27:49;;;;;;;19.67;2.33;;;4.60;92.40;;;;;;5022594;28;20131;-73
2021/04/03 03:30:16;;;;;;;14.77;2.90;;;4.60;92.20;;;;;;5004538;28;20036;-74
2021/04/03 03:32:42;;;;;;;17.85;2.90;;;4.50;92.40;;;;;;5040201;28;20029;-74
2021/04/03 03:35:08;;;;;;;20.42;2.75;;;4.60;92.40;;;;;;5051661;28;20044;-74
2021/04/03 03:37:34;;;;;;;18.73;3.28;;;4.50;92.50;;;;;;5035899;28;20022;-74
2021/04/03 03:40:00;;;;;;;18.55;4.20;;;4.50;92.40;;;;;;5034364;28;20036;-73
2021/04/03 03:42:25;;;;;;;14.30;2.92;;;4.60;92.40;;;;;;5017894;28;20032;-74
2021/04/03 03:44:51;;;;;;;13.55;2.28;;;4.60;92.20;;;;;;5032778;28;20040;-74
2021/04/03 03:47:17;;;;;;;17.33;2.97;;;4.60;92.00;;;;;;5003740;28;20369;-74
2021/04/03 03:49:43;;;;;;;16.58;2.22;;;4.60;91.90;;;;;;5016753;28;20068;-74
2021/04/03 03:52:08;;;;;;;11.35;2.20;;;4.70;91.80;;;;;;5033719;28;20109;-73
2021/04/03 03:54:34;;;;;;;19.83;3.33;;;4.60;91.90;;;;;;5019827;28;20212;-74
2021/04/03 03:57:01;;;;;;;22.85;2.83;;;4.60;92.10;;;;;;5038366;28;20031;-74
2021/04/03 03:59:26;;;;;;;13.77;2.42;;;4.40;92.60;;;;;;5037315;28;20073;-73
2021/04/03 04:01:52;;;;;;;21.58;2.50;;;4.40;92.60;;;;;;5039724;28;20127;-74
2021/04/03 04:04:17;;;;;;;18.20;2.92;;;4.40;92.40;;;;;;5035798;28;20508;-73
2021/04/03 04:06:42;;;;;;;16.73;3.22;;;4.50;92.40;;;;;;5034995;28;20029;-75
2021/04/03 04:09:08;;;;;;;20.58;3.30;;;4.50;92.20;;;;;;5036334;28;20043;-74
2021/04/03 04:11:34;;;;;;;14.07;2.72;;;4.60;92.10;;;;;;5050440;28;20051;-74
2021/04/03 04:13:59;;;;;;;19.80;3.90;;;4.50;92.20;;;;;;5034947;28;20109;-73
2021/04/03 04:16:25;;;;;;;18.63;2.88;;;4.60;92.00;;;;;;5050020;28;20735;-73
2021/04/03 04:18:50;;;;;;;15.90;2.83;;;4.50;92.10;;;;;;5036834;28;20487;-74
2021/04/03 04:21:17;;;;;;;18.55;2.70;;;4.50;92.20;;;;;;5018888;28;20531;-74
2021/04/03 04:23:43;;;;;;;11.63;2.88;;;4.50;92.30;;;;;;5021749;28;20040;-73
2021/04/03 04:26:09;;;;;;;20.25;3.50;;;4.50;92.30;;;;;;5051705;28;20025;-73
2021/04/03 04:28:34;;;;;;;19.25;3.22;;;4.50;92.30;;;;;;5036254;28;20463;-74
2021/04/03 04:31:00;;;;;;;14.18;2.63;;;4.40;92.60;;;;;;5051199;28;20036;-74
2021/04/03 04:33:26;;;;;;;15.38;2.83;;;4.40;92.50;;;;;;5035779;28;20179;-75
2021/04/03 04:35:51;;;;;;;13.57;2.42;;;4.50;92.10;;;;;;5032348;28;20468;-74
2021/04/03 04:38:17;;;;;;;25.77;2.95;;;4.50;92.00;;;;;;5019005;28;20481;-74
2021/04/03 04:40:42;;;;;;;15.10;2.95;;;4.50;91.90;;;;;;5029825;28;20025;-74
2021/04/03 04:43:08;;;;;;;16.58;3.40;;;4.40;92.10;;;;;;5014963;28;20029;-74
2021/04/03 04:45:33;;;;;;;11.40;2.15;;;4.40;92.10;;;;;;5030523;28;20020;-74
2021/04/03 04:47:59;;;;;;;32.30;3.08;;;4.40;92.10;;;;;;5045009;28;20029;-74
2021/04/03 04:50:24;;;;;;;14.45;3.25;;;4.30;92.00;;;;;;5022958;28;20052;-74
2021/04/03 04:52:50;;;;;;;22.40;3.38;;;4.30;92.00;;;;;;5051420;28;20029;-74
2021/04/03 04:55:15;;;;;;;22.70;3.22;;;4.30;92.00;;;;;;5036166;28;20361;-74
2021/04/03 04:57:41;;;;;;;25.42;4.45;;;4.20;92.00;;;;;;5035884;28;20036;-74
2021/04/03 05:00:07;;;;;;;17.05;2.78;;;4.20;92.00;;;;;;5052805;28;20032;-74
2021/04/03 05:02:33;;;;;;;14.80;2.58;;;4.20;92.00;;;;;;5034126;28;20028;-75
2021/04/03 05:04:58;;;;;;;14.80;4.03;;;4.10;91.90;;;;;;5038099;28;20032;-74
2021/04/03 05:07:24;;;;;;;23.88;4.32;;;4.00;92.00;;;;;;5035641;28;20041;-74
2021/04/03 05:09:49;;;;;;;22.92;4.60;;;4.00;91.80;;;;;;5052860;28;20061;-74
2021/04/03 05:12:15;;;;;;;12.45;2.63;;;3.90;92.00;;;;;;5035427;28;20072;-74
2021/04/03 05:14:40;;;;;;;25.70;4.13;;;3.90;92.00;;;;;;5020486;28;20065;-74
2021/04/03 05:17:06;;;;;;;27.48;3.30;;;3.80;91.80;;;;;;5017847;28;20512;-74
2021/04/03 05:19:31;;;;;;;10.82;2.60;;;3.70;91.60;;;;;;5034355;28;20028;-74
2021/04/03 05:21:57;;;;;;;22.30;3.58;;;3.70;92.10;;;;;;5017815;28;20078;-74
2021/04/03 05:24:22;;;;;;;20.33;2.42;;;3.70;91.50;;;;;;5052007;28;20044;-74
2021/04/03 05:26:48;;;;;;;17.02;3.90;;;3.70;91.60;;;;;;5033726;28;20507;-73
2021/04/03 05:29:13;;;;;;;18.83;3.22;;;3.60;91.70;;;;;;5048921;28;20048;-73
2021/04/03 05:31:39;;;;;;;17.60;2.97;;;3.60;91.80;;;;;;5016284;28;20033;-74
2021/04/03 05:34:05;;;;;;;18.27;2.80;;;3.70;91.50;;;;;;5047141;28;20593;-74
2021/04/03 05:36:30;;;;;;;20.40;3.80;;;3.70;91.60;;;;;;5043616;28;20032;-74
2021/04/03 05:38:56;;;;;;;17.83;2.80;;;3.70;91.40;;;;;;5038122;28;20384;-75
2021/04/03 05:41:21;;;;;;;25.10;3.78;;;3.80;91.10;;;;;;5049392;28;20037;-74
2021/04/03 05:43:47;;;;;;;19.60;3.17;;;3.70;91.10;;;;;;5047731;28;20412;-74
2021/04/03 05:46:14;;;;;;;24.30;4.22;;;3.60;91.30;;;;;;5050593;28;20032;-74
2021/04/03 05:48:40;;;;;;;26.92;4.18;;;3.50;91.50;;;;;;5047837;28;20417;-74
2021/04/03 05:51:05;;;;;;;23.92;3.30;;;3.50;91.50;;;;;;5035420;28;20028;-74
2021/04/03 05:53:31;;;;;;;19.27;3.90;;;3.40;91.80;;;;;;5015316;28;20382;-74
2021/04/03 05:55:57;;;;;;;16.40;3.28;;;3.40;92.20;;;;;;5042671;28;20052;-74
2021/04/03 05:58:22;;;;;;;16.77;3.63;;;3.40;92.40;;;;;;5037765;28;20388;-74
2021/04/03 06:00:50;;;;;;;18.70;4.00;;;3.40;92.30;;;;;;5023720;28;20021;-74
2021/04/03 06:03:16;;;;;;;25.23;4.13;;;3.50;92.20;;;;;;5020221;28;20550;-74
2021/04/03 06:05:45;;;;;;;25.00;4.07;;;3.40;92.20;;;;;;5036279;28;20034;-73
2021/04/03 06:08:10;;;;;;;16.48;3.58;;;3.40;92.50;;;;;;5034387;28;20389;-75
2021/04/03 06:10:36;;;;;;;24.73;4.93;;;3.60;92.80;;;;;;5034261;28;20026;-73
2021/04/03 06:13:02;;;;;;;21.92;3.60;;;3.60;92.70;;;;;;5034549;28;20588;-74
2021/04/03 06:15:27;;;;;;;17.08;3.45;;;3.60;92.80;;;;;;5053192;28;20036;-76
2021/04/03 06:17:56;;;;;;;16.35;2.97;;;3.80;92.90;;;;;;5055731;28;20079;-74
2021/04/03 06:20:35;;;;;;;22.23;3.63;;;3.90;92.40;;;;;;5020067;28;20092;-74
2021/04/03 06:23:01;;;;;;;25.00;4.65;;;3.90;92.60;;;;;;5037043;28;20048;-73
2021/04/03 06:25:27;;;;;;;23.85;4.43;;;3.80;92.80;;;;;;5022746;28;20400;-74
2021/04/03 06:28:10;;;;;;;26.33;3.53;;;3.80;93.30;;;;;;5006685;28;20032;-73
2021/04/03 06:30:37;;;;;;;18.70;3.70;;;3.90;93.20;;;;;;5048209;28;20041;-74
2021/04/03 06:33:18;;;;;;;38.20;4.07;;;4.00;93.40;;;;;;5004736;28;20098;-73
2021/04/03 06:35:45;;;;;;;19.25;3.65;;;4.10;93.20;;;;;;5018229;28;20060;-74
2021/04/03 06:38:18;;;;;;;28.75;4.82;;;4.20;93.20;;;;;;5018503;28;20049;-74
2021/04/03 06:40:44;;;;;;;21.33;3.92;;;4.20;93.50;;;;;;5049093;28;20493;-74
2021/04/03 06:43:14;;;;;;;28.80;4.95;;;4.30;93.30;;;;;;5034411;28;20104;-74
2021/04/03 06:45:41;;;;;;;21.55;3.80;;;4.30;93.60;;;;;;5050644;28;20500;-74
2021/04/03 06:48:07;;;;;;;25.00;4.03;;;4.40;93.80;;;;;;5019803;28;20040;-74
2021/04/03 06:50:41;;;;;;;26.08;4.95;;;4.50;93.70;;;;;;5009857;28;20032;-74
2021/04/03 06:53:10;;;;;;;15.63;3.95;;;4.50;93.70;;;;;;5011188;28;20037;-74
2021/04/03 06:55:36;;;;;;;16.27;3.83;;;4.60;93.50;;;;;;5051745;28;20029;-74
2021/04/03 06:58:03;;;;;;;20.45;4.70;;;4.80;93.50;;;;;;5015973;28;20109;-74
2021/04/03 07:00:30;;;;;;;30.58;5.50;;;4.80;93.40;;;;;;5021952;28;20611;-74
2021/04/03 07:03:14;;;;;;;39.63;5.18;;;4.80;93.50;;;;;;5021988;28;20028;-74
2021/04/03 07:05:40;;;;;;;35.38;5.20;;;4.90;93.70;;;;;;5041302;28;20052;-74
2021/04/03 07:08:06;;;;;;;23.15;4.20;;;5.00;93.60;;;;;;5032188;28;20037;-73
2021/04/03 07:10:32;;;;;;;26.00;5.18;;;5.00;93.60;;;;;;5006685;28;20117;-74
2021/04/03 07:12:58;;;;;;;20.73;5.70;;;5.20;93.60;;;;;;5054877;28;20035;-73
2021/04/03 07:15:24;;;;;;;20.67;5.13;;;5.30;93.70;;;;;;5017290;28;20409;-74
2021/04/03 07:17:50;;;;;;;23.98;5.75;;;5.50;93.40;;;;;;5034317;28;20045;-73
2021/04/03 07:20:20;;;;;;;25.63;5.95;;;5.60;93.80;;;;;;5004729;28;20393;-73
2021/04/03 07:22:48;;;;;;;25.95;5.65;;;5.90;93.70;;;;;;5029898;28;20061;-73
2021/04/03 07:25:14;;;;;;;20.00;4.60;;;6.10;93.60;;;;;;5018046;28;20116;-73
2021/04/03 07:27:45;;;;;;;25.55;4.95;;;6.20;93.30;;;;;;5030623;28;20112;-74
2021/04/03 07:30:11;;;;;;;26.33;4.07;;;6.30;93.00;;;;;;5022350;28;20040;-73
2021/04/03 07:32:38;;;;;;;20.65;5.55;;;6.30;92.90;;;;;;5033082;28;20248;-74
2021/04/03 07:35:15;;;;;;;24.10;5.47;;;6.40;92.70;;;;;;5050967;28;20061;-74
2021/04/03 07:37:41;;;;;;;23.45;5.20;;;6.40;92.60;;;;;;5052766;28;20101;-73
2021/04/03 07:40:12;;;;;;;27.38;6.15;;;6.40;92.50;;;;;;5038213;28;20028;-74
2021/04/03 07:42:38;;;;;;;27.98;10.57;;;6.60;92.50;;;;;;5052368;28;20366;-73
2021/04/03 07:45:05;;;;;;;26.13;8.27;;;6.70;92.10;;;;;;5034663;28;20032;-74
2021/04/03 07:47:33;;;;;;;25.67;10.10;;;6.80;91.70;;;;;;5009013;28;20064;-74
2021/04/03 07:49:59;;;;;;;20.77;8.65;;;6.90;91.10;;;;;;5031396;28;20059;-73
2021/04/03 07:52:53;;;;;;;24.75;9.93;;;6.90;91.80;;;;;;5019544;28;20155;-74
2021/04/03 07:55:37;;;;;;;27.90;10.35;;;7.00;91.30;;;;;;5033430;28;20044;-73
2021/04/03 07:58:22;;;;;;;27.65;11.00;;;7.00;91.50;;;;;;5008303;28;21886;-74
2021/04/03 08:00:47;;;;;;;25.95;10.60;;;7.10;91.40;;;;;;5049387;28;20029;-74
2021/04/03 08:03:13;;;;;;;27.25;11.60;;;7.20;91.40;;;;;;5007113;28;20044;-73
2021/04/03 08:05:39;;;;;;;31.35;12.57;;;7.20;90.90;;;;;;5014132;28;20453;-73
2021/04/03 08:08:05;;;;;;;28.60;12.57;;;7.30;90.70;;;;;;5029054;28;20504;-73
2021/04/03 08:10:31;;;;;;;33.58;13.55;;;7.30;90.80;;;;;;5004985;28;20120;-74
2021/04/03 08:12:56;;;;;;;37.92;12.60;;;7.20;90.40;;;;;;5036432;28;20131;-73
2021/04/03 08:15:22;;;;;;;31.38;13.30;;;7.30;90.50;;;;;;5015726;28;20045;-73
2021/04/03 08:17:53;;;;;;;30.73;13.65;;;7.30;90.80;;;;;;5034090;28;20041;-74
2021/04/03 08:20:20;;;;;;;30.08;13.95;;;7.40;90.70;;;;;;5029288;28;20033;-72
2021/04/03 08:23:02;;;;;;;31.75;15.15;;;7.60;90.40;;;;;;5017479;28;20063;-74
2021/04/03 08:25:27;;;;;;;34.40;13.18;;;7.50;90.40;;;;;;5032179;28;20048;-73
2021/04/03 08:27:53;;;;;;;29.75;13.00;;;7.60;90.40;;;;;;5038907;28;20037;-72
2021/04/03 08:30:27;;;;;;;29.13;12.65;;;7.70;89.90;;;;;;5019661;28;20033;-73
2021/04/03 08:33:05;;;;;;;32.20;15.43;;;7.80;88.50;;;;;;5008238;28;20097;-73
2021/04/03 08:35:31;;;;;;;37.50;13.55;;;7.80;90.10;;;;;;5048348;28;20140;-72
2021/04/03 08:38:07;;;;;;;37.25;14.80;;;7.90;89.40;;;;;;5011848;28;20111;-73
2021/04/03 08:40:32;;;;;;;45.05;16.50;;;8.00;89.50;;;;;;5049329;28;20513;-74
2021/04/03 08:42:58;;;;;;;36.35;17.27;;;8.30;90.00;;;;;;5025696;28;20028;-74
2021/04/03 08:45:23;;;;;;;38.67;16.40;;;8.40;90.30;;;;;;5015330;28;20033;-73
2021/04/03 08:47:52;;;;;;;40.42;17.63;;;8.70;90.00;;;;;;5027740;28;20033;-74
2021/04/03 08:50:17;;;;;;;34.15;18.55;;;8.90;90.30;;;;;;5043335;28;20033;-73
2021/04/03 08:52:44;;;;;;;32.67;15.18;;;9.20;89.60;;;;;;5010907;28;20040;-74
2021/04/03 08:55:10;;;;;;;29.30;13.10;;;9.40;89.50;;;;;;5031170;28;20144;-73
2021/04/03 08:57:35;;;;;;;37.17;15.57;;;9.50;90.20;;;;;;5046901;28;20708;-72
2021/04/03 09:00:02;;;;;;;32.47;14.23;;;9.60;88.30;;;;;;5012789;28;20028;-73
2021/04/03 09:02:27;;;;;;;37.22;15.25;;;9.70;87.70;;;;;;5046542;28;20041;-74
2021/04/03 09:04:53;;;;;;;33.90;15.02;;;9.90;89.80;;;;;;5004668;28;20437;-73
2021/04/03 09:07:34;;;;;;;41.28;16.67;;;10.20;88.60;;;;;;5006788;28;20041;-72
2021/04/03 09:10:06;;;;;;;24.05;13.27;;;10.40;86.30;;;;;;5041318;28;20040;-73
2021/04/03 09:12:32;;;;;;;30.67;14.25;;;10.60;87.20;;;;;;5042751;28;20392;-74
2021/04/03 09:14:57;;;;;;;34.40;16.60;;;10.80;86.50;;;;;;5010353;28;20036;-73
2021/04/03 09:17:24;;;;;;;38.00;18.42;;;10.90;87.50;;;;;;5021894;28;20036;-74
2021/04/03 09:19:50;;;;;;;33.55;14.48;;;11.00;83.40;;;;;;5012587;28;20037;-74
2021/04/03 09:22:20;;;;;;;32.50;13.70;;;11.10;84.70;;;;;;5008170;28;20492;-73
2021/04/03 09:24:46;;;;;;;34.53;13.88;;;11.30;84.40;;;;;;5022381;28;20051;-72
2021/04/03 09:27:13;;;;;;;32.40;14.20;;;11.50;84.30;;;;;;5024037;28;20473;-74
2021/04/03 09:29:39;;;;;;;31.92;13.88;;;11.60;82.70;;;;;;5034387;28;20101;-73
2021/04/03 09:32:09;;;;;;;32.80;14.95;;;11.90;82.30;;;;;;5047999;28;20036;-73
2021/04/03 09:34:35;;;;;;;36.63;17.55;;;12.00;80.10;;;;;;5041696;28;20037;-73
2021/04/03 09:37:20;;;;;;;28.90;12.65;;;12.10;79.70;;;;;;5017255;28;20512;-74
2021/04/03 09:40:47;;;;;;;35.83;11.93;;;12.20;79.80;;;;;;5048740;28;20075;-73
2021/04/03 09:42:40;;;;;;;32.70;15.43;;;12.30;81.00;;;;;;5026519;28;20571;-74
2021/04/03 09:45:06;;;;;;;37.05;17.58;;;12.50;80.90;;;;;;5029160;28;20116;-73
2021/04/03 09:47:31;;;;;;;38.45;14.55;;;12.70;80.10;;;;;;5041423;28;20500;-73
2021/04/03 09:49:57;;;;;;;26.58;15.23;;;12.90;78.20;;;;;;5029419;28;20032;-74
2021/04/03 09:52:23;;;;;;;31.48;14.18;;;13.10;76.40;;;;;;5027040;28;20068;-75
2021/04/03 09:54:48;;;;;;;26.05;12.07;;;13.00;76.00;;;;;;5009134;28;20513;-74
2021/04/03 09:57:15;;;;;;;28.23;14.00;;;13.10;74.70;;;;;;5012590;28;20315;-74
2021/04/03 09:59:40;;;;;;;28.95;12.20;;;13.10;78.40;;;;;;5006761;28;20399;-73
2021/04/03 10:02:06;;;;;;;32.55;14.38;;;13.10;76.80;;;;;;5045451;28;20405;-73
2021/04/03 10:04:32;;;;;;;36.45;13.90;;;13.40;76.10;;;;;;5012620;28;20056;-75
2021/04/03 10:06:57;;;;;;;32.00;15.27;;;13.40;76.30;;;;;;5011777;28;20021;-74
2021/04/03 10:09:23;;;;;;;30.13;14.48;;;13.50;77.40;;;;;;5016611;28;20040;-74
2021/04/03 10:11:49;;;;;;;23.38;9.82;;;13.50;76.40;;;;;;5020304;28;20045;-74
2021/04/03 10:14:14;;;;;;;21.00;9.00;;;13.70;76.50;;;;;;5016304;28;20135;-73
2021/04/03 10:16:40;;;;;;;27.60;9.65;;;13.70;77.60;;;;;;5014650;28;20374;-74
2021/04/03 10:19:06;;;;;;;26.17;8.45;;;13.80;73.80;;;;;;5036061;28;20035;-74
2021/04/03 10:21:32;;;;;;;22.50;8.98;;;13.70;77.00;;;;;;5039337;28;20037;-74
2021/04/03 10:23:57;;;;;;;19.67;7.60;;;13.80;75.70;;;;;;5037799;28;20036;-75
2021/04/03 10:26:23;;;;;;;18.80;7.72;;;13.70;76.40;;;;;;5025936;28;20033;-74
2021/04/03 10:28:48;;;;;;;23.13;8.23;;;13.70;76.30;;;;;;5028066;28;20029;-74
2021/04/03 10:31:14;;;;;;;25.63;7.68;;;13.80;76.20;;;;;;5028843;28;20041;-74
2021/04/03 10:33:39;;;;;;;22.70;8.98;;;13.80;74.40;;;;;;5033867;28;20453;-74
2021/04/03 10:36:06;;;;;;;23.75;8.93;;;13.90;71.90;;;;;;5031793;28;20028;-74
2021/04/03 10:38:32;;;;;;;20.50;8.35;;;13.70;72.60;;;;;;5031524;28;20120;-74
2021/04/03 10:40:57;;;;;;;17.63;8.10;;;13.80;74.00;;;;;;5044993;28;20107;-74
2021/04/03 10:43:23;;;;;;;22.85;8.25;;;13.90;72.80;;;;;;5033511;28;20033;-74
2021/04/03 10:45:48;;;;;;;21.30;8.23;;;14.10;72.60;;;;;;5041115;28;20099;-74
2021/04/03 10:48:14;;;;;;;24.35;9.18;;;14.30;70.10;;;;;;5039266;28;20024;-75
2021/04/03 10:50:40;;;;;;;21.77;8.52;;;14.20;68.40;;;;;;5056407;28;20492;-75
2021/04/03 10:53:06;;;;;;;21.25;8.60;;;14.10;70.90;;;;;;5038413;28;20063;-75
2021/04/03 10:55:32;;;;;;;24.98;8.55;;;14.10;72.20;;;;;;5042501;28;20147;-76
2021/04/03 10:57:58;;;;;;;17.13;7.53;;;14.10;72.20;;;;;;5054592;28;20032;-75
2021/04/03 11:00:24;;;;;;;22.05;8.13;;;14.30;71.90;;;;;;5014855;28;20060;-75
2021/04/03 11:02:49;;;;;;;21.15;8.27;;;14.30;70.00;;;;;;5031606;28;20088;-75
2021/04/03 11:05:15;;;;;;;23.92;8.73;;;14.30;71.30;;;;;;5032848;28;20071;-75
2021/04/03 11:07:40;;;;;;;29.10;9.50;;;14.40;70.10;;;;;;5044364;28;20049;-75
2021/04/03 11:10:06;;;;;;;22.95;7.45;;;14.40;72.90;;;;;;5007601;28;20047;-75
2021/04/03 11:12:32;;;;;;;18.65;8.52;;;14.60;73.40;;;;;;5030971;28;20521;-75
2021/04/03 11:14:58;;;;;;;22.13;8.20;;;14.90;71.60;;;;;;5057648;28;20052;-75
2021/04/03 11:17:23;;;;;;;24.50;10.15;;;14.90;70.50;;;;;;5015639;28;20041;-75
2021/04/03 11:19:49;;;;;;;23.27;8.50;;;14.90;68.40;;;;;;5052726;28;20057;-74
2021/04/03 11:22:14;;;;;;;24.20;10.05;;;14.90;69.90;;;;;;5038178;28;20107;-75
2021/04/03 11:24:40;;;;;;;27.05;8.63;;;15.00;64.80;;;;;;5026431;28;20033;-75
2021/04/03 11:27:06;;;;;;;21.55;9.60;;;14.90;66.00;;;;;;5049793;28;20032;-75
2021/04/03 11:29:31;;;;;;;30.73;10.20;;;14.80;66.50;;;;;;5013242;28;20040;-75
2021/04/03 11:31:57;;;;;;;21.23;8.77;;;14.90;68.70;;;;;;5039910;28;20504;-75
2021/04/03 11:34:22;;;;;;;26.95;9.88;;;14.90;69.80;;;;;;5024703;28;20310;-75
2021/04/03 11:36:48;;;;;;;20.08;8.95;;;15.00;69.00;;;;;;5028467;28;20025;-75
2021/04/03 11:39:13;;;;;;;24.25;8.90;;;15.30;67.50;;;;;;5008275;28;20038;-76
2021/04/03 11:41:39;;;;;;;15.10;7.68;;;15.40;68.80;;;;;;5057325;28;20476;-75
2021/04/03 11:44:04;;;;;;;26.92;7.60;;;15.40;67.40;;;;;;5032718;28;20034;-75
2021/04/03 11:46:30;;;;;;;22.67;6.72;;;15.40;63.10;;;;;;5034290;28;20626;-75
2021/04/03 11:48:56;;;;;;;19.75;8.27;;;15.40;64.90;;;;;;5036458;28;20040;-75
2021/04/03 11:51:21;;;;;;;20.85;8.10;;;15.50;64.10;;;;;;5036019;28;20145;-75
2021/04/03 11:53:48;;;;;;;16.85;6.75;;;15.50;61.50;;;;;;5031712;28;20121;-75
2021/04/03 11:56:14;;;;;;;19.60;7.20;;;15.60;64.90;;;;;;5016808;28;20555;-75
2021/04/03 11:58:39;;;;;;;16.48;7.32;;;15.60;64.60;;;;;;5043230;28;20036;-76
2021/04/03 12:01:05;;;;;;;17.83;8.00;;;15.70;63.80;;;;;;5030856;28;20037;-75
2021/04/03 12:03:31;;;;;;;21.20;9.07;;;15.80;64.60;;;;;;5027912;28;20036;-76
2021/04/03 12:05:56;;;;;;;19.27;7.65;;;15.80;61.80;;;;;;5043814;28;20520;-76
2021/04/03 12:08:22;;;;;;;23.13;7.90;;;16.00;65.10;;;;;;5051582;28;20044;-76
2021/04/03 12:10:47;;;;;;;12.18;6.82;;;16.20;66.70;;;;;;5008333;28;20390;-75
2021/04/03 12:13:13;;;;;;;18.88;9.13;;;16.30;65.00;;;;;;5011847;28;20430;-76
2021/04/03 12:15:39;;;;;;;13.93;8.93;;;16.90;65.60;;;;;;5035011;28;20120;-75
2021/04/03 12:18:05;;;;;;;22.25;10.50;;;16.70;64.90;;;;;;5028988;28;20052;-75
2021/04/03 12:20:30;;;;;;;22.95;10.57;;;16.60;60.10;;;;;;5019021;28;20040;-76
2021/04/03 12:22:59;;;;;;;19.10;8.77;;;16.50;62.70;;;;;;5015468;28;20799;-75
2021/04/03 12:25:24;;;;;;;13.70;7.75;;;16.50;63.30;;;;;;5037672;28;20055;-75
2021/04/03 12:27:50;;;;;;;16.23;7.57;;;16.40;58.60;;;;;;5038030;28;20068;-74
2021/04/03 12:30:16;;;;;;;17.98;8.48;;;16.50;61.70;;;;;;5027000;28;21544;-74
2021/04/03 12:32:41;;;;;;;18.70;7.70;;;16.50;61.30;;;;;;5044601;28;20208;-75
2021/04/03 12:35:07;;;;;;;11.38;7.68;;;16.60;61.70;;;;;;5021450;28;20060;-75
2021/04/03 12:37:33;;;;;;;14.75;8.38;;;16.80;63.10;;;;;;5040213;28;20382;-74
2021/04/03 12:39:58;;;;;;;17.70;7.00;;;16.90;58.40;;;;;;5037545;28;20032;-75
2021/04/03 12:42:24;;;;;;;14.13;5.85;;;16.90;56.90;;;;;;5049206;28;20041;-75